Lake Charles Regional Airport

Airport
ICAO code: 
KLCH
Summary
ICAO Region: 
NAM
Territory: 
Location: 
Lake Charles, Louisiana,
Coordinates: 
Aerial View: 
30° 7' 32.999" N, 93° 13' 23.999" W
Metar
Observation
KLCH 021553Z 00000KT 8SM FEW002 18/18 A3022 RMK AO2 SLP241 T01830178 $
Station
Lake Charles, Lake Charles Regional Airport
Date/Time
2021-12-02 15:53:00
Wind direction
Wind speed
00 kts
Lowest cloud amount
few clouds
Temperature
18.3°C
Dew point
17.8°C
Humidity
96%
Weather condition
n/a

Description

Lake Charles Regional Airport is a public use airport located 9 km south of the central business district of Lake Charles, a city in Calcasieu Parish, Louisiana.

Climatology

Humid “subtropical” climate (Köppen climate classification Cfa) - characterized by hot, humid summers and cool winters. Significant amounts of precipitation occur in all seasons in most areas. Winter rainfall is associated with large storms that the westerlies steer from west to east. Most summer rainfall occurs during thunderstorms and occasional tropical storms (hurricanes).

Runways

Designator Length Width Surface Rops
5/23 1585 30 ASP Yes/Yes
15/33 1981 46 CON Yes/Yes
Airport map: 
Aerial View: 

SKYbrary Partners:

Safety knowledge contributed by: